createdAt,value
2023-03-03T00:04:57.861Z,-0.95
2023-03-03T00:10:00.160Z,-0.91
2023-03-03T00:15:13.388Z,-0.80
2023-03-03T00:20:38.841Z,-0.79
2023-03-03T00:25:44.082Z,-0.87
2023-03-03T00:30:46.006Z,-0.87
2023-03-03T00:35:49.117Z,-0.93
2023-03-03T00:40:51.262Z,-1.00
2023-03-03T00:45:54.466Z,-0.99
2023-03-03T00:50:59.745Z,-1.15
2023-03-03T00:56:01.989Z,-1.05
2023-03-03T01:01:04.201Z,-1.06
2023-03-03T01:06:07.661Z,-1.25
2023-03-03T01:11:12.877Z,-1.37
2023-03-03T01:16:15.021Z,-1.25
2023-03-03T01:21:18.549Z,-1.21
2023-03-03T01:26:20.637Z,-1.27
2023-03-03T01:31:23.065Z,-1.24
2023-03-03T01:36:29.156Z,-1.24
2023-03-03T01:41:32.150Z,-1.14
2023-03-03T01:46:54.635Z,-1.35
2023-03-03T01:52:01.396Z,-1.39
2023-03-03T01:57:12.105Z,-1.61
2023-03-03T02:02:14.317Z,-1.49
2023-03-03T02:07:19.990Z,-1.49
2023-03-03T02:12:30.679Z,-1.45
2023-03-03T02:17:33.340Z,-1.48
2023-03-03T02:22:44.268Z,-1.36
2023-03-03T02:27:48.004Z,-1.41
2023-03-03T02:32:50.408Z,-1.27
2023-03-03T02:37:52.921Z,-1.31
2023-03-03T02:42:58.643Z,-1.45
2023-03-03T02:48:00.857Z,-1.50
2023-03-03T02:53:02.914Z,-1.47
2023-03-03T02:58:06.344Z,-1.38
2023-03-03T03:03:11.581Z,-1.25
2023-03-03T03:08:13.909Z,-1.32
2023-03-03T03:13:17.449Z,-1.41
2023-03-03T03:18:19.637Z,-1.31
2023-03-03T03:23:21.773Z,-1.34
2023-03-03T03:28:25.035Z,-1.34
2023-03-03T03:33:27.339Z,-1.27
2023-03-03T03:38:29.341Z,-1.19
2023-03-03T03:43:33.660Z,-1.21
2023-03-03T03:48:36.141Z,-1.19
2023-03-03T03:53:38.217Z,-1.13
2023-03-03T03:58:42.716Z,-1.13
2023-03-03T04:03:44.968Z,-1.14
2023-03-03T04:08:47.034Z,-1.16
2023-03-03T04:13:50.541Z,-1.20
2023-03-03T04:18:52.717Z,-1.21
2023-03-03T04:23:54.834Z,-1.28
2023-03-03T04:28:58.730Z,-1.29
2023-03-03T04:34:01.450Z,-1.19
2023-03-03T04:39:04.314Z,-1.26
2023-03-03T04:44:08.440Z,-1.26
2023-03-03T04:49:12.497Z,-1.24
2023-03-03T04:54:17.229Z,-1.07
2023-03-03T04:59:20.751Z,-1.12
2023-03-03T05:04:23.235Z,-1.14
2023-03-03T05:09:25.605Z,-1.23
2023-03-03T05:14:29.004Z,-1.19
2023-03-03T05:19:30.706Z,-1.24
2023-03-03T05:24:32.807Z,-1.34
2023-03-03T05:29:36.003Z,-1.36
2023-03-03T05:34:38.539Z,-1.29
2023-03-03T05:39:40.302Z,-1.28
2023-03-03T05:44:43.446Z,-1.19
2023-03-03T05:49:48.061Z,-1.28
2023-03-03T05:54:50.242Z,-1.22
2023-03-03T05:59:57.749Z,-0.98
2023-03-03T06:04:59.925Z,-1.08
2023-03-03T06:10:02.250Z,-1.08
2023-03-03T06:15:07.582Z,-1.08
2023-03-03T06:20:12.070Z,-0.93
2023-03-03T06:25:14.213Z,-1.01
2023-03-03T06:30:18.126Z,-0.90
2023-03-03T06:35:20.633Z,-0.88
2023-03-03T06:40:22.702Z,-0.91
2023-03-03T06:45:26.296Z,-1.02
2023-03-03T06:50:28.162Z,-0.81
2023-03-03T06:55:29.964Z,-0.83
2023-03-03T07:00:33.500Z,-0.86
2023-03-03T07:05:36.138Z,-0.93
2023-03-03T07:10:39.430Z,-0.95
2023-03-03T07:15:42.881Z,-0.92
2023-03-03T07:20:45.448Z,-0.77
2023-03-03T07:25:47.668Z,-0.77
2023-03-03T07:30:51.785Z,-0.74
2023-03-03T07:35:56.536Z,-0.73
2023-03-03T07:41:02.047Z,-0.72
2023-03-03T07:46:23.279Z,-0.71
2023-03-03T07:51:27.910Z,-0.65
2023-03-03T07:56:34.720Z,-0.73
2023-03-03T08:01:40.729Z,-0.69
2023-03-03T08:06:47.314Z,-0.52
2023-03-03T08:11:54.064Z,-0.51
2023-03-03T08:17:01.716Z,-0.46
2023-03-03T08:22:17.681Z,-0.30
2023-03-03T08:27:19.537Z,-0.36
2023-03-03T08:32:23.059Z,-0.31
2023-03-03T08:37:25.769Z,-0.09
2023-03-03T08:42:27.816Z,-0.23
2023-03-03T08:47:31.750Z,-0.22
2023-03-03T08:52:34.051Z,0.02
2023-03-03T08:57:38.572Z,0.04
2023-03-03T09:02:42.363Z,0.02
2023-03-03T09:07:47.609Z,0.21
2023-03-03T09:12:50.000Z,0.03
2023-03-03T09:17:54.157Z,0.27
2023-03-03T09:22:56.201Z,0.78
2023-03-03T09:28:01.806Z,0.68
2023-03-03T09:33:24.063Z,0.88
2023-03-03T09:38:30.035Z,0.97
2023-03-03T09:43:39.309Z,1.33
2023-03-03T09:48:56.030Z,1.29
2023-03-03T09:54:11.296Z,1.14
2023-03-03T09:59:28.267Z,0.91
2023-03-03T10:05:05.809Z,1.39
2023-03-03T10:10:45.998Z,1.77
2023-03-03T10:16:03.209Z,1.91
2023-03-03T10:21:16.081Z,1.76
2023-03-03T10:26:43.905Z,2.07
2023-03-03T10:31:59.926Z,2.11
2023-03-03T10:37:13.486Z,2.18
2023-03-03T10:42:36.019Z,2.23
2023-03-03T10:47:56.084Z,2.41
2023-03-03T10:53:14.424Z,2.42
2023-03-03T10:58:46.828Z,2.43
2023-03-03T11:04:01.299Z,2.62
2023-03-03T11:09:16.382Z,2.69
2023-03-03T11:14:27.694Z,2.42
2023-03-03T11:19:40.998Z,2.78
2023-03-03T11:24:55.883Z,2.62
2023-03-03T11:30:09.454Z,2.57
2023-03-03T11:35:22.859Z,2.50
2023-03-03T11:40:31.286Z,2.53
2023-03-03T11:45:40.632Z,2.52
2023-03-03T11:50:51.681Z,2.55
2023-03-03T11:56:07.511Z,2.88
2023-03-03T12:01:21.112Z,2.92
2023-03-03T12:06:31.688Z,2.77
2023-03-03T12:11:46.796Z,2.85
2023-03-03T12:16:55.713Z,3.13
2023-03-03T12:22:17.371Z,3.41
2023-03-03T12:27:29.390Z,3.33
2023-03-03T12:32:50.592Z,3.38
2023-03-03T12:37:58.692Z,3.27
2023-03-03T12:43:24.461Z,3.56
2023-03-03T12:48:38.826Z,3.58
2023-03-03T12:53:53.589Z,3.21
2023-03-03T12:59:01.919Z,3.60
2023-03-03T13:04:11.147Z,3.65
2023-03-03T13:09:23.934Z,3.80
2023-03-03T13:14:37.641Z,3.49
2023-03-03T13:19:44.357Z,3.30
2023-03-03T13:24:58.657Z,3.53
2023-03-03T13:30:11.285Z,3.55
2023-03-03T13:35:25.741Z,3.65
2023-03-03T13:40:36.330Z,3.88
2023-03-03T13:45:56.605Z,3.81
2023-03-03T13:51:07.092Z,3.83
2023-03-03T13:56:24.906Z,3.65
2023-03-03T14:01:39.240Z,4.08
2023-03-03T14:06:48.017Z,4.06
2023-03-03T14:11:56.524Z,4.12
2023-03-03T14:17:04.723Z,4.13
2023-03-03T14:22:16.693Z,4.54
2023-03-03T14:27:24.956Z,4.21
2023-03-03T14:32:44.395Z,4.11
2023-03-03T14:37:50.574Z,4.64
2023-03-03T14:42:55.958Z,4.67
2023-03-03T14:48:05.988Z,4.68
2023-03-03T14:53:14.072Z,4.47
2023-03-03T14:58:33.594Z,4.76
2023-03-03T15:03:37.761Z,4.55
2023-03-03T15:08:41.139Z,4.54
2023-03-03T15:13:43.289Z,4.38
2023-03-03T15:19:06.089Z,4.65
2023-03-03T15:24:15.959Z,4.79
2023-03-03T15:29:26.232Z,4.33
2023-03-03T15:34:37.750Z,4.22
2023-03-03T15:39:48.536Z,4.40
2023-03-03T15:45:01.960Z,4.46
2023-03-03T15:50:16.695Z,4.50
2023-03-03T15:55:33.682Z,4.46
2023-03-03T16:00:53.564Z,4.41
2023-03-03T16:06:00.280Z,4.24
2023-03-03T16:11:08.332Z,4.28
2023-03-03T16:16:20.442Z,4.18
2023-03-03T16:21:38.535Z,4.18
2023-03-03T16:26:50.643Z,4.09
2023-03-03T16:31:58.283Z,4.00
2023-03-03T16:37:12.483Z,3.92
2023-03-03T16:42:24.256Z,3.84
2023-03-03T16:47:40.774Z,3.78
2023-03-03T16:52:49.773Z,3.71
2023-03-03T16:58:04.520Z,3.66
2023-03-03T17:03:33.476Z,3.56
2023-03-03T17:08:57.558Z,3.49
2023-03-03T17:14:15.959Z,3.36
2023-03-03T17:19:41.153Z,3.30
2023-03-03T17:24:54.119Z,3.20
2023-03-03T17:30:11.221Z,3.02
2023-03-03T17:35:29.009Z,2.91
2023-03-03T17:40:47.330Z,2.73
2023-03-03T17:45:54.253Z,2.57
2023-03-03T17:51:10.270Z,2.42
2023-03-03T17:56:19.180Z,2.28
2023-03-03T18:01:32.885Z,2.17
2023-03-03T18:07:10.096Z,2.18
2023-03-03T18:12:27.347Z,2.33
2023-03-03T18:17:35.825Z,2.44
2023-03-03T18:22:45.769Z,2.49
2023-03-03T18:28:22.469Z,2.51
2023-03-03T18:33:41.231Z,2.56
2023-03-03T18:38:48.556Z,2.73
2023-03-03T18:43:58.429Z,2.81
2023-03-03T18:49:04.376Z,2.94
2023-03-03T18:54:25.380Z,2.90
2023-03-03T18:59:48.013Z,3.03
2023-03-03T19:04:55.591Z,2.96
2023-03-03T19:09:59.584Z,2.98
2023-03-03T19:15:09.479Z,3.06
2023-03-03T19:20:16.676Z,3.11
2023-03-03T19:25:23.501Z,3.11
2023-03-03T19:30:42.021Z,3.11
2023-03-03T19:35:55.264Z,3.08
2023-03-03T19:41:18.931Z,3.06
2023-03-03T19:46:52.917Z,3.02
2023-03-03T19:52:03.294Z,3.01
2023-03-03T19:57:14.298Z,3.03
2023-03-03T20:02:33.470Z,3.01
2023-03-03T20:07:44.654Z,2.99
2023-03-03T20:13:02.112Z,3.00
2023-03-03T20:18:25.437Z,3.01
2023-03-03T20:23:34.792Z,3.01
2023-03-03T20:28:57.366Z,3.01
2023-03-03T20:34:11.672Z,2.99
2023-03-03T20:39:22.115Z,2.92
2023-03-03T20:44:38.465Z,2.98
2023-03-03T20:49:55.033Z,2.94
2023-03-03T20:55:10.761Z,3.00
2023-03-03T21:00:20.513Z,3.02
2023-03-03T21:05:24.588Z,3.03
2023-03-03T21:10:28.829Z,2.99
2023-03-03T21:15:33.122Z,2.89
2023-03-03T21:20:37.248Z,2.82
2023-03-03T21:25:44.720Z,2.75
2023-03-03T21:31:13.698Z,2.57
2023-03-03T21:36:19.087Z,2.43
2023-03-03T21:41:21.441Z,2.41
2023-03-03T21:46:24.516Z,2.37
2023-03-03T21:51:28.413Z,2.38
2023-03-03T21:56:30.478Z,2.29
2023-03-03T22:01:38.186Z,2.25
2023-03-03T22:06:42.069Z,2.27
2023-03-03T22:11:44.464Z,2.30
2023-03-03T22:16:46.650Z,2.25
2023-03-03T22:21:50.147Z,2.25
2023-03-03T22:26:51.847Z,2.26
2023-03-03T22:31:54.156Z,2.32
2023-03-03T22:36:57.952Z,2.30
2023-03-03T22:42:00.195Z,2.39
2023-03-03T22:47:02.483Z,2.34
2023-03-03T22:52:06.249Z,2.22
2023-03-03T22:57:08.199Z,2.25
2023-03-03T23:02:10.516Z,2.26
2023-03-03T23:07:13.779Z,2.28
2023-03-03T23:12:16.297Z,2.18
2023-03-03T23:17:18.387Z,2.08
2023-03-03T23:22:21.787Z,1.90
2023-03-03T23:27:23.880Z,1.70
2023-03-03T23:32:26.212Z,1.60
2023-03-03T23:37:29.700Z,1.38
2023-03-03T23:42:34.201Z,1.24
2023-03-03T23:47:36.936Z,1.13
2023-03-03T23:52:40.403Z,1.05
2023-03-03T23:57:42.547Z,1.06
